sensor_id;sensor_type;location;lat;lon;timestamp;temperature;humidity
3071;DHT22;1546;47.208;9.038;2022-11-14T00:00:39;6.40;99.90
3071;DHT22;1546;47.208;9.038;2022-11-14T00:03:07;6.40;99.90
3071;DHT22;1546;47.208;9.038;2022-11-14T00:05:38;6.50;99.90
3071;DHT22;1546;47.208;9.038;2022-11-14T00:08:05;6.50;99.90
3071;DHT22;1546;47.208;9.038;2022-11-14T00:10:33;6.30;99.90
3071;DHT22;1546;47.208;9.038;2022-11-14T00:13:00;6.30;99.90
3071;DHT22;1546;47.208;9.038;2022-11-14T00:15:27;6.30;99.90
3071;DHT22;1546;47.208;9.038;2022-11-14T00:17:54;6.30;99.90
3071;DHT22;1546;47.208;9.038;2022-11-14T00:20:20;6.40;99.90
3071;DHT22;1546;47.208;9.038;2022-11-14T00:22:47;6.30;99.90
3071;DHT22;1546;47.208;9.038;2022-11-14T00:25:14;6.40;99.90
3071;DHT22;1546;47.208;9.038;2022-11-14T00:27:42;6.50;99.90
3071;DHT22;1546;47.208;9.038;2022-11-14T00:30:10;6.50;99.90
3071;DHT22;1546;47.208;9.038;2022-11-14T00:32:37;6.50;99.90
3071;DHT22;1546;47.208;9.038;2022-11-14T00:35:04;6.50;99.90
3071;DHT22;1546;47.208;9.038;2022-11-14T00:37:31;6.50;99.90
3071;DHT22;1546;47.208;9.038;2022-11-14T00:39:58;6.50;99.90
3071;DHT22;1546;47.208;9.038;2022-11-14T00:42:24;6.50;99.90
3071;DHT22;1546;47.208;9.038;2022-11-14T00:44:53;6.50;99.90
3071;DHT22;1546;47.208;9.038;2022-11-14T00:47:19;6.50;99.90
3071;DHT22;1546;47.208;9.038;2022-11-14T00:49:46;6.50;99.90
3071;DHT22;1546;47.208;9.038;2022-11-14T00:52:13;6.50;99.90
3071;DHT22;1546;47.208;9.038;2022-11-14T00:54:40;6.60;99.90
3071;DHT22;1546;47.208;9.038;2022-11-14T00:57:07;6.70;99.90
3071;DHT22;1546;47.208;9.038;2022-11-14T00:59:33;6.70;99.90
3071;DHT22;1546;47.208;9.038;2022-11-14T01:02:02;6.80;99.90
3071;DHT22;1546;47.208;9.038;2022-11-14T01:04:28;6.80;99.90
3071;DHT22;1546;47.208;9.038;2022-11-14T01:06:55;6.80;99.90
3071;DHT22;1546;47.208;9.038;2022-11-14T01:09:22;6.90;99.90
3071;DHT22;1546;47.208;9.038;2022-11-14T01:11:49;7.00;99.90
3071;DHT22;1546;47.208;9.038;2022-11-14T01:14:16;7.20;99.90
3071;DHT22;1546;47.208;9.038;2022-11-14T01:16:42;7.10;99.90
3071;DHT22;1546;47.208;9.038;2022-11-14T01:19:10;7.10;99.90
3071;DHT22;1546;47.208;9.038;2022-11-14T01:21:37;7.00;99.90
3071;DHT22;1546;47.208;9.038;2022-11-14T01:24:05;7.10;99.90
3071;DHT22;1546;47.208;9.038;2022-11-14T01:26:32;7.10;99.90
3071;DHT22;1546;47.208;9.038;2022-11-14T01:28:59;7.10;99.90
3071;DHT22;1546;47.208;9.038;2022-11-14T01:31:26;7.00;99.90
3071;DHT22;1546;47.208;9.038;2022-11-14T01:33:53;6.90;99.90
3071;DHT22;1546;47.208;9.038;2022-11-14T01:36:21;6.80;99.90
3071;DHT22;1546;47.208;9.038;2022-11-14T01:38:51;6.60;99.90
3071;DHT22;1546;47.208;9.038;2022-11-14T01:41:19;6.70;99.90
3071;DHT22;1546;47.208;9.038;2022-11-14T01:43:47;6.70;99.90
3071;DHT22;1546;47.208;9.038;2022-11-14T01:46:18;6.80;99.90
3071;DHT22;1546;47.208;9.038;2022-11-14T01:48:50;6.90;99.90
3071;DHT22;1546;47.208;9.038;2022-11-14T01:51:24;7.00;99.90
3071;DHT22;1546;47.208;9.038;2022-11-14T01:53:56;7.10;99.90
3071;DHT22;1546;47.208;9.038;2022-11-14T01:56:32;7.10;99.90
3071;DHT22;1546;47.208;9.038;2022-11-14T01:59:02;7.00;99.90
3071;DHT22;1546;47.208;9.038;2022-11-14T02:01:33;7.00;99.90
3071;DHT22;1546;47.208;9.038;2022-11-14T02:04:01;7.00;99.90
3071;DHT22;1546;47.208;9.038;2022-11-14T02:06:31;7.00;99.90
3071;DHT22;1546;47.208;9.038;2022-11-14T02:09:00;7.00;99.90
3071;DHT22;1546;47.208;9.038;2022-11-14T02:11:29;6.90;99.90
3071;DHT22;1546;47.208;9.038;2022-11-14T02:13:57;6.80;99.90
3071;DHT22;1546;47.208;9.038;2022-11-14T02:16:25;6.90;99.90
3071;DHT22;1546;47.208;9.038;2022-11-14T02:18:51;6.90;99.90
3071;DHT22;1546;47.208;9.038;2022-11-14T02:21:20;6.80;99.90
3071;DHT22;1546;47.208;9.038;2022-11-14T02:23:47;6.90;99.90
3071;DHT22;1546;47.208;9.038;2022-11-14T02:26:16;6.80;99.90
3071;DHT22;1546;47.208;9.038;2022-11-14T02:28:43;6.90;99.90
3071;DHT22;1546;47.208;9.038;2022-11-14T02:31:10;7.00;99.90
3071;DHT22;1546;47.208;9.038;2022-11-14T02:33:37;6.80;99.90
3071;DHT22;1546;47.208;9.038;2022-11-14T02:36:04;6.90;99.90
3071;DHT22;1546;47.208;9.038;2022-11-14T02:38:33;6.80;99.90
3071;DHT22;1546;47.208;9.038;2022-11-14T02:41:00;7.00;99.90
3071;DHT22;1546;47.208;9.038;2022-11-14T02:43:28;7.00;99.90
3071;DHT22;1546;47.208;9.038;2022-11-14T02:45:54;6.90;99.90
3071;DHT22;1546;47.208;9.038;2022-11-14T02:48:21;6.90;99.90
3071;DHT22;1546;47.208;9.038;2022-11-14T02:50:48;6.80;99.90
3071;DHT22;1546;47.208;9.038;2022-11-14T02:53:15;7.00;99.90
3071;DHT22;1546;47.208;9.038;2022-11-14T02:55:44;7.00;99.90
3071;DHT22;1546;47.208;9.038;2022-11-14T02:58:10;7.20;99.90
3071;DHT22;1546;47.208;9.038;2022-11-14T03:00:37;7.10;99.90
3071;DHT22;1546;47.208;9.038;2022-11-14T03:03:04;7.20;99.90
3071;DHT22;1546;47.208;9.038;2022-11-14T03:05:31;7.20;99.90
3071;DHT22;1546;47.208;9.038;2022-11-14T03:07:58;7.20;99.90
3071;DHT22;1546;47.208;9.038;2022-11-14T03:10:25;7.10;99.90
3071;DHT22;1546;47.208;9.038;2022-11-14T03:12:54;7.00;99.90
3071;DHT22;1546;47.208;9.038;2022-11-14T03:15:21;7.10;99.90
3071;DHT22;1546;47.208;9.038;2022-11-14T03:17:48;7.10;99.90
3071;DHT22;1546;47.208;9.038;2022-11-14T03:20:15;7.20;99.90
3071;DHT22;1546;47.208;9.038;2022-11-14T03:22:42;7.10;99.90
3071;DHT22;1546;47.208;9.038;2022-11-14T03:25:09;7.20;99.90
3071;DHT22;1546;47.208;9.038;2022-11-14T03:27:36;7.10;99.90
3071;DHT22;1546;47.208;9.038;2022-11-14T03:30:05;7.10;99.90
3071;DHT22;1546;47.208;9.038;2022-11-14T03:32:31;7.00;99.90
3071;DHT22;1546;47.208;9.038;2022-11-14T03:34:58;7.00;99.90
3071;DHT22;1546;47.208;9.038;2022-11-14T03:37:25;6.70;99.90
3071;DHT22;1546;47.208;9.038;2022-11-14T03:39:52;6.70;99.90
3071;DHT22;1546;47.208;9.038;2022-11-14T03:42:19;6.70;99.90
3071;DHT22;1546;47.208;9.038;2022-11-14T03:44:46;6.60;99.90
3071;DHT22;1546;47.208;9.038;2022-11-14T03:47:14;6.60;99.90
3071;DHT22;1546;47.208;9.038;2022-11-14T03:49:41;6.80;99.90
3071;DHT22;1546;47.208;9.038;2022-11-14T03:52:09;6.80;99.90
3071;DHT22;1546;47.208;9.038;2022-11-14T03:54:36;6.80;99.90
3071;DHT22;1546;47.208;9.038;2022-11-14T03:57:03;6.80;99.90
3071;DHT22;1546;47.208;9.038;2022-11-14T03:59:30;6.90;99.90
3071;DHT22;1546;47.208;9.038;2022-11-14T04:01:57;6.90;99.90
3071;DHT22;1546;47.208;9.038;2022-11-14T04:04:26;6.90;99.90
3071;DHT22;1546;47.208;9.038;2022-11-14T04:06:53;6.70;99.90
3071;DHT22;1546;47.208;9.038;2022-11-14T04:09:19;6.80;99.90
3071;DHT22;1546;47.208;9.038;2022-11-14T04:11:46;6.80;99.90
3071;DHT22;1546;47.208;9.038;2022-11-14T04:14:13;6.90;99.90
3071;DHT22;1546;47.208;9.038;2022-11-14T04:16:40;6.90;99.90
3071;DHT22;1546;47.208;9.038;2022-11-14T04:19:06;6.70;99.90
3071;DHT22;1546;47.208;9.038;2022-11-14T04:21:35;6.70;99.90
3071;DHT22;1546;47.208;9.038;2022-11-14T04:24:02;6.90;99.90
3071;DHT22;1546;47.208;9.038;2022-11-14T04:26:29;6.90;99.90
3071;DHT22;1546;47.208;9.038;2022-11-14T04:28:55;7.00;99.90
3071;DHT22;1546;47.208;9.038;2022-11-14T04:31:22;7.30;99.90
3071;DHT22;1546;47.208;9.038;2022-11-14T04:33:49;7.30;99.90
3071;DHT22;1546;47.208;9.038;2022-11-14T04:36:16;7.30;99.90
3071;DHT22;1546;47.208;9.038;2022-11-14T04:38:44;7.40;99.90
3071;DHT22;1546;47.208;9.038;2022-11-14T04:41:11;7.80;99.90
3071;DHT22;1546;47.208;9.038;2022-11-14T04:43:38;7.90;99.90
3071;DHT22;1546;47.208;9.038;2022-11-14T04:46:05;8.00;99.90
3071;DHT22;1546;47.208;9.038;2022-11-14T04:48:31;8.00;99.90
3071;DHT22;1546;47.208;9.038;2022-11-14T04:50:58;7.90;99.90
3071;DHT22;1546;47.208;9.038;2022-11-14T04:53:25;8.00;99.90
3071;DHT22;1546;47.208;9.038;2022-11-14T04:55:53;8.10;99.90
3071;DHT22;1546;47.208;9.038;2022-11-14T04:58:20;8.00;99.90
3071;DHT22;1546;47.208;9.038;2022-11-14T05:00:47;8.10;99.90
3071;DHT22;1546;47.208;9.038;2022-11-14T05:03:13;8.30;99.90
3071;DHT22;1546;47.208;9.038;2022-11-14T05:05:40;8.40;99.90
3071;DHT22;1546;47.208;9.038;2022-11-14T05:08:07;8.60;99.90
3071;DHT22;1546;47.208;9.038;2022-11-14T05:10:34;8.70;99.90
3071;DHT22;1546;47.208;9.038;2022-11-14T05:13:02;8.80;99.90
3071;DHT22;1546;47.208;9.038;2022-11-14T05:15:29;8.80;99.90
3071;DHT22;1546;47.208;9.038;2022-11-14T05:17:56;8.90;99.90
3071;DHT22;1546;47.208;9.038;2022-11-14T05:20:23;8.90;99.90
3071;DHT22;1546;47.208;9.038;2022-11-14T05:22:52;9.10;99.90
3071;DHT22;1546;47.208;9.038;2022-11-14T05:25:20;9.10;99.90
3071;DHT22;1546;47.208;9.038;2022-11-14T05:27:47;9.20;99.90
3071;DHT22;1546;47.208;9.038;2022-11-14T05:30:15;9.30;99.90
3071;DHT22;1546;47.208;9.038;2022-11-14T05:32:42;9.40;99.90
3071;DHT22;1546;47.208;9.038;2022-11-14T05:35:10;9.40;99.90
3071;DHT22;1546;47.208;9.038;2022-11-14T05:37:37;9.40;99.90
3071;DHT22;1546;47.208;9.038;2022-11-14T05:40:05;9.30;99.90
3071;DHT22;1546;47.208;9.038;2022-11-14T05:42:31;9.40;99.90
3071;DHT22;1546;47.208;9.038;2022-11-14T05:44:58;9.40;99.90
3071;DHT22;1546;47.208;9.038;2022-11-14T05:47:26;9.20;99.90
3071;DHT22;1546;47.208;9.038;2022-11-14T05:49:53;9.10;99.90
3071;DHT22;1546;47.208;9.038;2022-11-14T05:52:20;9.00;99.90
3071;DHT22;1546;47.208;9.038;2022-11-14T05:54:47;8.80;99.90
3071;DHT22;1546;47.208;9.038;2022-11-14T05:57:13;8.60;99.90
3071;DHT22;1546;47.208;9.038;2022-11-14T05:59:40;8.60;99.90
3071;DHT22;1546;47.208;9.038;2022-11-14T06:02:07;8.60;99.90
3071;DHT22;1546;47.208;9.038;2022-11-14T06:04:35;8.60;99.90
3071;DHT22;1546;47.208;9.038;2022-11-14T06:07:02;8.80;99.90
3071;DHT22;1546;47.208;9.038;2022-11-14T06:09:29;8.90;99.90
3071;DHT22;1546;47.208;9.038;2022-11-14T06:11:56;9.00;99.90
3071;DHT22;1546;47.208;9.038;2022-11-14T06:14:22;9.00;99.90
3071;DHT22;1546;47.208;9.038;2022-11-14T06:16:49;9.20;99.90
3071;DHT22;1546;47.208;9.038;2022-11-14T06:19:16;9.30;99.90
3071;DHT22;1546;47.208;9.038;2022-11-14T06:21:44;9.40;99.90
3071;DHT22;1546;47.208;9.038;2022-11-14T06:24:11;9.60;99.90
3071;DHT22;1546;47.208;9.038;2022-11-14T06:26:38;9.50;99.90
3071;DHT22;1546;47.208;9.038;2022-11-14T06:29:05;9.70;99.90
3071;DHT22;1546;47.208;9.038;2022-11-14T06:31:32;9.60;99.90
3071;DHT22;1546;47.208;9.038;2022-11-14T06:33:59;9.50;99.90
3071;DHT22;1546;47.208;9.038;2022-11-14T06:36:25;9.40;99.90
3071;DHT22;1546;47.208;9.038;2022-11-14T06:38:54;9.40;99.90
3071;DHT22;1546;47.208;9.038;2022-11-14T06:41:21;9.30;99.90
3071;DHT22;1546;47.208;9.038;2022-11-14T06:43:49;9.30;99.90
3071;DHT22;1546;47.208;9.038;2022-11-14T06:46:18;9.50;99.90
3071;DHT22;1546;47.208;9.038;2022-11-14T06:48:47;9.40;99.90
3071;DHT22;1546;47.208;9.038;2022-11-14T06:51:15;9.20;99.90
3071;DHT22;1546;47.208;9.038;2022-11-14T06:53:42;9.20;99.90
3071;DHT22;1546;47.208;9.038;2022-11-14T06:56:11;9.20;99.90
3071;DHT22;1546;47.208;9.038;2022-11-14T06:58:40;9.20;99.90
3071;DHT22;1546;47.208;9.038;2022-11-14T07:01:09;9.40;99.90
3071;DHT22;1546;47.208;9.038;2022-11-14T07:03:37;9.40;99.90
3071;DHT22;1546;47.208;9.038;2022-11-14T07:06:05;9.40;99.90
3071;DHT22;1546;47.208;9.038;2022-11-14T07:08:32;9.40;99.90
3071;DHT22;1546;47.208;9.038;2022-11-14T07:11:03;9.30;99.90
3071;DHT22;1546;47.208;9.038;2022-11-14T07:13:32;9.30;99.90
3071;DHT22;1546;47.208;9.038;2022-11-14T07:16:00;9.40;99.90
3071;DHT22;1546;47.208;9.038;2022-11-14T07:18:29;9.70;99.90
3071;DHT22;1546;47.208;9.038;2022-11-14T07:20:57;9.60;99.90
3071;DHT22;1546;47.208;9.038;2022-11-14T07:23:24;9.60;99.90
3071;DHT22;1546;47.208;9.038;2022-11-14T07:25:51;9.60;99.90
3071;DHT22;1546;47.208;9.038;2022-11-14T07:28:18;9.50;99.90
3071;DHT22;1546;47.208;9.038;2022-11-14T07:30:46;9.60;99.90
3071;DHT22;1546;47.208;9.038;2022-11-14T07:33:13;9.50;99.90
3071;DHT22;1546;47.208;9.038;2022-11-14T07:35:40;9.30;99.90
3071;DHT22;1546;47.208;9.038;2022-11-14T07:38:07;9.40;99.90
3071;DHT22;1546;47.208;9.038;2022-11-14T07:40:34;9.60;99.90
3071;DHT22;1546;47.208;9.038;2022-11-14T07:43:01;9.60;99.90
3071;DHT22;1546;47.208;9.038;2022-11-14T07:45:28;9.60;99.90
3071;DHT22;1546;47.208;9.038;2022-11-14T07:48:00;9.80;99.90
3071;DHT22;1546;47.208;9.038;2022-11-14T07:50:28;9.80;99.90
3071;DHT22;1546;47.208;9.038;2022-11-14T07:52:55;9.80;99.90
3071;DHT22;1546;47.208;9.038;2022-11-14T07:55:23;9.90;99.90
3071;DHT22;1546;47.208;9.038;2022-11-14T07:57:52;9.90;99.90
3071;DHT22;1546;47.208;9.038;2022-11-14T08:00:19;9.90;99.90
3071;DHT22;1546;47.208;9.038;2022-11-14T08:02:46;9.90;99.90
3071;DHT22;1546;47.208;9.038;2022-11-14T08:05:14;10.00;99.90
3071;DHT22;1546;47.208;9.038;2022-11-14T08:07:41;10.00;99.90
3071;DHT22;1546;47.208;9.038;2022-11-14T08:10:09;10.70;99.90
3071;DHT22;1546;47.208;9.038;2022-11-14T08:12:38;9.90;99.90
3071;DHT22;1546;47.208;9.038;2022-11-14T08:15:06;9.90;99.90
3071;DHT22;1546;47.208;9.038;2022-11-14T08:17:34;9.60;99.90
3071;DHT22;1546;47.208;9.038;2022-11-14T08:20:01;10.00;99.90
3071;DHT22;1546;47.208;9.038;2022-11-14T08:22:29;9.80;99.90
3071;DHT22;1546;47.208;9.038;2022-11-14T08:24:56;9.90;99.90
3071;DHT22;1546;47.208;9.038;2022-11-14T08:27:23;9.80;99.90
3071;DHT22;1546;47.208;9.038;2022-11-14T08:29:50;9.60;99.90
3071;DHT22;1546;47.208;9.038;2022-11-14T08:32:17;9.70;99.90
3071;DHT22;1546;47.208;9.038;2022-11-14T08:34:44;9.80;99.90
3071;DHT22;1546;47.208;9.038;2022-11-14T08:37:11;9.90;99.90
3071;DHT22;1546;47.208;9.038;2022-11-14T08:39:39;9.70;99.90
3071;DHT22;1546;47.208;9.038;2022-11-14T08:42:06;9.70;99.90
3071;DHT22;1546;47.208;9.038;2022-11-14T08:44:33;9.70;99.90
3071;DHT22;1546;47.208;9.038;2022-11-14T08:47:00;9.70;99.90
3071;DHT22;1546;47.208;9.038;2022-11-14T08:49:28;9.80;99.90
3071;DHT22;1546;47.208;9.038;2022-11-14T08:51:55;10.00;99.90
3071;DHT22;1546;47.208;9.038;2022-11-14T08:54:21;9.70;99.90
3071;DHT22;1546;47.208;9.038;2022-11-14T08:56:50;9.90;99.90
3071;DHT22;1546;47.208;9.038;2022-11-14T08:59:16;9.70;99.90
3071;DHT22;1546;47.208;9.038;2022-11-14T09:01:43;9.70;99.90
3071;DHT22;1546;47.208;9.038;2022-11-14T09:04:10;9.70;99.90
3071;DHT22;1546;47.208;9.038;2022-11-14T09:06:37;9.70;99.90
3071;DHT22;1546;47.208;9.038;2022-11-14T09:09:04;9.70;99.90
3071;DHT22;1546;47.208;9.038;2022-11-14T09:11:30;9.90;99.90
3071;DHT22;1546;47.208;9.038;2022-11-14T09:13:59;10.00;99.90
3071;DHT22;1546;47.208;9.038;2022-11-14T09:16:27;10.00;99.90
3071;DHT22;1546;47.208;9.038;2022-11-14T09:18:54;10.10;99.90
3071;DHT22;1546;47.208;9.038;2022-11-14T09:21:20;10.00;99.90
3071;DHT22;1546;47.208;9.038;2022-11-14T09:23:47;10.00;99.90
3071;DHT22;1546;47.208;9.038;2022-11-14T09:26:14;10.20;99.90
3071;DHT22;1546;47.208;9.038;2022-11-14T09:28:43;10.30;99.90
3071;DHT22;1546;47.208;9.038;2022-11-14T09:31:12;10.30;99.90
3071;DHT22;1546;47.208;9.038;2022-11-14T09:33:39;10.30;99.90
3071;DHT22;1546;47.208;9.038;2022-11-14T09:36:07;10.20;99.90
3071;DHT22;1546;47.208;9.038;2022-11-14T09:38:34;10.20;99.90
3071;DHT22;1546;47.208;9.038;2022-11-14T09:41:14;10.40;99.90
3071;DHT22;1546;47.208;9.038;2022-11-14T09:46:45;10.30;99.90
3071;DHT22;1546;47.208;9.038;2022-11-14T09:49:22;10.30;99.90
3071;DHT22;1546;47.208;9.038;2022-11-14T09:51:57;10.40;99.90
3071;DHT22;1546;47.208;9.038;2022-11-14T09:54:27;10.40;99.90
3071;DHT22;1546;47.208;9.038;2022-11-14T09:56:57;10.40;99.90
3071;DHT22;1546;47.208;9.038;2022-11-14T09:59:24;10.40;99.90
3071;DHT22;1546;47.208;9.038;2022-11-14T10:01:57;10.40;99.90
3071;DHT22;1546;47.208;9.038;2022-11-14T10:04:45;10.30;99.90
3071;DHT22;1546;47.208;9.038;2022-11-14T10:07:24;10.40;99.90
3071;DHT22;1546;47.208;9.038;2022-11-14T10:10:02;10.40;99.90
3071;DHT22;1546;47.208;9.038;2022-11-14T10:12:35;10.40;99.90
3071;DHT22;1546;47.208;9.038;2022-11-14T10:15:14;10.40;99.90
3071;DHT22;1546;47.208;9.038;2022-11-14T10:17:57;10.30;99.90
3071;DHT22;1546;47.208;9.038;2022-11-14T10:20:32;10.50;99.90
3071;DHT22;1546;47.208;9.038;2022-11-14T10:23:22;10.70;99.90
3071;DHT22;1546;47.208;9.038;2022-11-14T10:25:54;10.80;99.90
3071;DHT22;1546;47.208;9.038;2022-11-14T10:28:37;10.80;99.90
3071;DHT22;1546;47.208;9.038;2022-11-14T10:31:13;11.00;99.90
3071;DHT22;1546;47.208;9.038;2022-11-14T10:33:51;10.80;99.90
3071;DHT22;1546;47.208;9.038;2022-11-14T10:36:26;10.60;99.90
3071;DHT22;1546;47.208;9.038;2022-11-14T10:39:02;10.70;99.90
3071;DHT22;1546;47.208;9.038;2022-11-14T10:41:31;11.00;99.90
3071;DHT22;1546;47.208;9.038;2022-11-14T10:43:58;11.60;99.90
3071;DHT22;1546;47.208;9.038;2022-11-14T10:46:28;12.30;98.30
3071;DHT22;1546;47.208;9.038;2022-11-14T10:48:58;12.80;99.50
3071;DHT22;1546;47.208;9.038;2022-11-14T10:51:30;12.80;99.90
3071;DHT22;1546;47.208;9.038;2022-11-14T10:54:01;12.70;99.90
3071;DHT22;1546;47.208;9.038;2022-11-14T10:56:30;12.70;99.90
3071;DHT22;1546;47.208;9.038;2022-11-14T10:58:56;12.60;99.90
3071;DHT22;1546;47.208;9.038;2022-11-14T11:01:36;12.40;99.90
3071;DHT22;1546;47.208;9.038;2022-11-14T11:04:19;12.20;99.90
3071;DHT22;1546;47.208;9.038;2022-11-14T11:06:48;12.10;99.90
3071;DHT22;1546;47.208;9.038;2022-11-14T11:09:16;11.90;99.90
3071;DHT22;1546;47.208;9.038;2022-11-14T11:12:02;12.00;99.90
3071;DHT22;1546;47.208;9.038;2022-11-14T11:14:31;12.30;99.90
3071;DHT22;1546;47.208;9.038;2022-11-14T11:17:22;12.60;99.90
3071;DHT22;1546;47.208;9.038;2022-11-14T11:19:50;12.90;99.90
3071;DHT22;1546;47.208;9.038;2022-11-14T11:22:29;12.90;99.90
3071;DHT22;1546;47.208;9.038;2022-11-14T11:25:00;12.80;99.90
3071;DHT22;1546;47.208;9.038;2022-11-14T11:27:28;13.80;99.90
3071;DHT22;1546;47.208;9.038;2022-11-14T11:30:16;13.20;99.90
3071;DHT22;1546;47.208;9.038;2022-11-14T11:32:44;13.10;99.90
3071;DHT22;1546;47.208;9.038;2022-11-14T11:35:13;13.10;99.90
3071;DHT22;1546;47.208;9.038;2022-11-14T11:37:45;13.00;99.90
3071;DHT22;1546;47.208;9.038;2022-11-14T11:40:20;12.90;99.90
3071;DHT22;1546;47.208;9.038;2022-11-14T11:42:52;12.80;99.90
3071;DHT22;1546;47.208;9.038;2022-11-14T11:45:23;13.20;99.90
3071;DHT22;1546;47.208;9.038;2022-11-14T11:47:54;13.60;99.90
3071;DHT22;1546;47.208;9.038;2022-11-14T11:50:24;13.20;99.90
3071;DHT22;1546;47.208;9.038;2022-11-14T11:53:06;13.70;99.90
3071;DHT22;1546;47.208;9.038;2022-11-14T11:55:41;13.90;99.90
3071;DHT22;1546;47.208;9.038;2022-11-14T11:58:14;13.60;99.90
3071;DHT22;1546;47.208;9.038;2022-11-14T12:00:42;13.70;99.90
3071;DHT22;1546;47.208;9.038;2022-11-14T12:03:11;13.60;99.90
3071;DHT22;1546;47.208;9.038;2022-11-14T12:05:51;13.50;99.90
3071;DHT22;1546;47.208;9.038;2022-11-14T12:08:26;13.30;99.90
3071;DHT22;1546;47.208;9.038;2022-11-14T12:10:56;13.10;99.90
3071;DHT22;1546;47.208;9.038;2022-11-14T12:19:40;12.80;99.90
3071;DHT22;1546;47.208;9.038;2022-11-14T12:22:29;12.80;99.90
3071;DHT22;1546;47.208;9.038;2022-11-14T12:25:31;12.70;99.90
3071;DHT22;1546;47.208;9.038;2022-11-14T12:28:15;12.80;99.90
3071;DHT22;1546;47.208;9.038;2022-11-14T12:30:47;12.90;99.90
3071;DHT22;1546;47.208;9.038;2022-11-14T12:33:18;12.90;99.90
3071;DHT22;1546;47.208;9.038;2022-11-14T12:35:49;12.90;99.90
3071;DHT22;1546;47.208;9.038;2022-11-14T12:38:19;13.00;99.90
3071;DHT22;1546;47.208;9.038;2022-11-14T12:40:51;13.10;99.90
3071;DHT22;1546;47.208;9.038;2022-11-14T12:43:31;13.20;99.90
3071;DHT22;1546;47.208;9.038;2022-11-14T12:46:02;13.20;99.90
3071;DHT22;1546;47.208;9.038;2022-11-14T12:48:33;13.20;99.90
3071;DHT22;1546;47.208;9.038;2022-11-14T12:51:01;13.10;99.90
3071;DHT22;1546;47.208;9.038;2022-11-14T12:53:43;13.20;99.90
3071;DHT22;1546;47.208;9.038;2022-11-14T12:56:22;13.20;99.90
3071;DHT22;1546;47.208;9.038;2022-11-14T12:59:27;13.40;99.90
3071;DHT22;1546;47.208;9.038;2022-11-14T13:04:58;13.40;99.90
3071;DHT22;1546;47.208;9.038;2022-11-14T13:07:36;13.50;99.90
3071;DHT22;1546;47.208;9.038;2022-11-14T13:10:14;13.40;99.90
3071;DHT22;1546;47.208;9.038;2022-11-14T13:12:41;13.40;99.90
3071;DHT22;1546;47.208;9.038;2022-11-14T13:15:28;13.40;99.90
3071;DHT22;1546;47.208;9.038;2022-11-14T13:18:21;13.30;99.90
3071;DHT22;1546;47.208;9.038;2022-11-14T13:21:16;13.20;99.90
3071;DHT22;1546;47.208;9.038;2022-11-14T13:24:01;13.10;99.90
3071;DHT22;1546;47.208;9.038;2022-11-14T13:26:47;13.00;99.90
3071;DHT22;1546;47.208;9.038;2022-11-14T13:35:39;13.60;99.90
3071;DHT22;1546;47.208;9.038;2022-11-14T13:41:28;13.40;99.90
3071;DHT22;1546;47.208;9.038;2022-11-14T13:44:14;13.90;99.90
3071;DHT22;1546;47.208;9.038;2022-11-14T13:46:56;13.80;99.90
3071;DHT22;1546;47.208;9.038;2022-11-14T13:49:50;14.90;99.90
3071;DHT22;1546;47.208;9.038;2022-11-14T13:52:19;13.70;99.90
3071;DHT22;1546;47.208;9.038;2022-11-14T13:54:47;13.60;99.90
3071;DHT22;1546;47.208;9.038;2022-11-14T13:57:21;13.90;99.90
3071;DHT22;1546;47.208;9.038;2022-11-14T14:00:00;13.90;99.90
3071;DHT22;1546;47.208;9.038;2022-11-14T14:02:53;13.60;99.90
3071;DHT22;1546;47.208;9.038;2022-11-14T14:05:29;13.50;99.90
3071;DHT22;1546;47.208;9.038;2022-11-14T14:08:07;13.30;99.90
3071;DHT22;1546;47.208;9.038;2022-11-14T14:10:41;13.20;99.90
3071;DHT22;1546;47.208;9.038;2022-11-14T14:13:21;12.90;99.90
3071;DHT22;1546;47.208;9.038;2022-11-14T14:16:02;13.10;99.90
3071;DHT22;1546;47.208;9.038;2022-11-14T14:18:42;13.10;99.90
3071;DHT22;1546;47.208;9.038;2022-11-14T14:21:16;13.20;99.90
3071;DHT22;1546;47.208;9.038;2022-11-14T14:23:48;13.10;99.90
3071;DHT22;1546;47.208;9.038;2022-11-14T14:26:25;13.10;99.90
3071;DHT22;1546;47.208;9.038;2022-11-14T14:29:03;13.10;99.90
3071;DHT22;1546;47.208;9.038;2022-11-14T14:31:36;13.10;99.90
3071;DHT22;1546;47.208;9.038;2022-11-14T14:34:20;13.30;99.90
3071;DHT22;1546;47.208;9.038;2022-11-14T14:36:51;13.50;99.90
3071;DHT22;1546;47.208;9.038;2022-11-14T14:39:20;13.40;99.90
3071;DHT22;1546;47.208;9.038;2022-11-14T14:41:50;13.20;99.90
3071;DHT22;1546;47.208;9.038;2022-11-14T14:44:22;12.30;99.90
3071;DHT22;1546;47.208;9.038;2022-11-14T14:46:52;12.90;99.90
3071;DHT22;1546;47.208;9.038;2022-11-14T14:49:21;13.10;99.90
3071;DHT22;1546;47.208;9.038;2022-11-14T14:51:49;13.00;99.90
3071;DHT22;1546;47.208;9.038;2022-11-14T14:54:21;13.90;99.90
3071;DHT22;1546;47.208;9.038;2022-11-14T14:56:52;13.40;99.90
3071;DHT22;1546;47.208;9.038;2022-11-14T14:59:22;13.40;99.90
3071;DHT22;1546;47.208;9.038;2022-11-14T15:01:49;13.40;99.90
3071;DHT22;1546;47.208;9.038;2022-11-14T15:04:19;13.10;99.90
3071;DHT22;1546;47.208;9.038;2022-11-14T15:06:47;13.40;99.90
3071;DHT22;1546;47.208;9.038;2022-11-14T15:09:17;13.10;99.90
3071;DHT22;1546;47.208;9.038;2022-11-14T15:11:47;13.10;99.90
3071;DHT22;1546;47.208;9.038;2022-11-14T15:14:17;13.10;99.90
3071;DHT22;1546;47.208;9.038;2022-11-14T15:16:46;13.20;99.90
3071;DHT22;1546;47.208;9.038;2022-11-14T15:19:18;13.20;99.90
3071;DHT22;1546;47.208;9.038;2022-11-14T15:22:00;13.10;99.90
3071;DHT22;1546;47.208;9.038;2022-11-14T15:24:28;13.10;99.90
3071;DHT22;1546;47.208;9.038;2022-11-14T15:26:55;13.00;99.90
3071;DHT22;1546;47.208;9.038;2022-11-14T15:29:23;12.70;99.90
3071;DHT22;1546;47.208;9.038;2022-11-14T15:31:52;12.50;99.90
3071;DHT22;1546;47.208;9.038;2022-11-14T15:34:26;12.40;99.90
3071;DHT22;1546;47.208;9.038;2022-11-14T15:37:18;12.30;99.90
3071;DHT22;1546;47.208;9.038;2022-11-14T15:39:46;12.30;99.90
3071;DHT22;1546;47.208;9.038;2022-11-14T15:42:13;12.40;99.90
3071;DHT22;1546;47.208;9.038;2022-11-14T15:44:40;12.30;99.90
3071;DHT22;1546;47.208;9.038;2022-11-14T15:47:10;12.80;99.90
3071;DHT22;1546;47.208;9.038;2022-11-14T15:49:52;12.10;99.90
3071;DHT22;1546;47.208;9.038;2022-11-14T15:52:23;10.50;99.90
3071;DHT22;1546;47.208;9.038;2022-11-14T15:54:51;12.00;99.90
3071;DHT22;1546;47.208;9.038;2022-11-14T15:57:18;12.10;99.90
3071;DHT22;1546;47.208;9.038;2022-11-14T15:59:44;12.10;99.90
3071;DHT22;1546;47.208;9.038;2022-11-14T16:02:14;12.00;99.90
3071;DHT22;1546;47.208;9.038;2022-11-14T16:04:43;11.90;99.90
3071;DHT22;1546;47.208;9.038;2022-11-14T16:07:11;11.80;99.90
3071;DHT22;1546;47.208;9.038;2022-11-14T16:09:38;11.80;99.90
3071;DHT22;1546;47.208;9.038;2022-11-14T16:12:06;11.70;99.90
3071;DHT22;1546;47.208;9.038;2022-11-14T16:14:32;11.70;99.90
3071;DHT22;1546;47.208;9.038;2022-11-14T16:16:59;12.60;99.90
3071;DHT22;1546;47.208;9.038;2022-11-14T16:19:26;11.80;99.90
3071;DHT22;1546;47.208;9.038;2022-11-14T16:21:57;11.90;99.90
3071;DHT22;1546;47.208;9.038;2022-11-14T16:24:27;11.90;99.90
3071;DHT22;1546;47.208;9.038;2022-11-14T16:26:54;11.80;99.90
3071;DHT22;1546;47.208;9.038;2022-11-14T16:29:22;11.70;99.90
3071;DHT22;1546;47.208;9.038;2022-11-14T16:31:49;11.80;99.90
3071;DHT22;1546;47.208;9.038;2022-11-14T16:34:18;11.60;99.90
3071;DHT22;1546;47.208;9.038;2022-11-14T16:36:45;11.50;99.90
3071;DHT22;1546;47.208;9.038;2022-11-14T16:39:14;11.60;99.90
3071;DHT22;1546;47.208;9.038;2022-11-14T16:41:41;11.60;99.90
3071;DHT22;1546;47.208;9.038;2022-11-14T16:44:12;11.60;99.90
3071;DHT22;1546;47.208;9.038;2022-11-14T16:46:41;11.70;99.90
3071;DHT22;1546;47.208;9.038;2022-11-14T16:49:11;11.80;99.90